Share

Chiang Mai, Thailand

3:55 PM ICT on April 24, 2014 (GMT +0700)
ThaiWx Station (ICHANGWA3) Elev 1007 ft | 18.77 °N, 98.97 °E | Change Station

Current weather conditions updated 1 minute ago

Partly Cloudy
Partly Cloudy
99.3 °F
Feels Like 107 °F
N
0.0
Wind Variable Wind from SSE
Gusts 5.8 mph
Sunrise 6:01 AM
Sunset 6:43 PM
Moon Waning Crescent

Today is forecast to be Warmer than yesterday.

Pressure 29.71 in
Visibility 6.2 miles
Clouds Few 4000 ft
Heat Index 107 °F
Dew Point 70 °F
Humidity 39%
Rainfall 0.00 in
Snow Depth Not available.
UV 9 out of 16
Pollen Not available.
Air Quality Not available.
Flu Activity Not available.
METAR VTCC 240830Z 17006KT 9999 FEW040 38/16 Q1006 A2970 NOSIG

More Conditions Fewer Conditions

Pressure 29.71 in
Visibility 6.2 miles
Clouds Few 4000 ft
Heat Index 107 °F
Dew Point 70 °F
Humidity 39%
Rainfall 0.00 in
Snow Depth Not available.
UV 9 out of 16
Pollen Not available.
Air Quality Not available.
Flu Activity Not available.
METAR VTCC 240830Z 17006KT 9999 FEW040 38/16 Q1006 A2970 NOSIG

More Conditions Fewer Conditions

10-Day Weather Forecast

Almanac

Astronomy

Apr. 24, 2014 Rise Set
Actual Time 6:01 AM ICT 6:43 PM ICT
Civil Twilight 5:38 AM ICT 7:06 PM ICT
Nautical Twilight 5:12 AM ICT 7:32 PM ICT
Astronomical Twilight 4:45 AM ICT 7:59 PM ICT
Moon 2:05 AM ICT 2:07 PM ICT
Length of Visible Light 13h 27m
Length of Day
12h 42m
Tomorrow will be 0m 58s longer.
Waning Crescent, 27% of the Moon is Illuminated
Today
Waning Crescent
Apr 29
New
May 6
First Quarter
May 14
Full
May 21
Last Quarter

Yesterday's Extremes

Country Highs Country Lows

Community

  • Stacked
    Stacked
  • clouds approaching Red Sox Nation
    clouds approaching Red Sox Nation
  • Balance
    Balance
  • Nestled In
    Nestled In
  • Stunning Sunrise
    Stunning Sunrise

WunderPhotos

Upload Photos

1,704,575 photos uploaded!

WunderBlogs® & News

Nearby

Snow Depth

Not available.

Coastal Water Temperatures

Place Temperature
No Stations Reporting

Earthquake Activity

City Distance Mag. Time & Date
No recent earthquake activity has been reported nearby.
Minimum magnitude displayed is 2.5.

Nearby Weather Stations

Station Location Temp. Heat Index Dew Point Humidity Wind Precip. Elev Updated Type
ThaiWx Station, Chiang Mai 99.3 °F 107 °F 70 °F 39% SSE  at  0.0 mph 0.00 in / hr 1007 ft 3:53 PM ICT Normal
Station ThaiWx, Chiang Mai 108.7 °F 119 °F 71 °F 30% SSE  at  5.4 mph 0.00 in / hr 1007 ft 3:54 PM ICT Normal
Nantawan Villiage, Chiang Mai 106.2 °F 107 °F 60 °F 22% SSW  at  0.2 mph 0.00 in / hr 1063 ft 3:54 PM ICT Rapid Fire
Grace International School, T. Nong Khwai, A. Hang Dong 104.4 °F 110 °F 67 °F 30% South  at  8.3 mph 0.00 in / hr 1033 ft 3:55 PM ICT Rapid Fire

Show More Stations Show Fewer Stations

What do you think?

We're not finished. Please let us know what you like, what you don't like, and what you are still missing.